<?xml version='1.0' encoding='UTF-8'?><gpx version="1.1" creator="JPX - https://github.com/jenetics/jpx" xmlns="http://www.topografix.com/GPX/1/1"><trk><trkseg><trkpt lat="44.0422755" lon="9.967784"><ele>263.0</ele><time>2026-05-02T12:40:33.164Z</time></trkpt><trkpt lat="44.0422151" lon="9.9678133"><ele>263.0</ele><time>2026-05-02T12:40:39.179Z</time></trkpt><trkpt lat="44.0421531" lon="9.9678443"><ele>263.0</ele><time>2026-05-02T12:40:46.187Z</time></trkpt><trkpt lat="44.0420927" lon="9.9678762"><ele>263.0</ele><time>2026-05-02T12:40:53.189Z</time></trkpt><trkpt lat="44.0420318" lon="9.9679168"><ele>263.0</ele><time>2026-05-02T12:41:01.189Z</time></trkpt><trkpt lat="44.0419811" lon="9.9679845"><ele>263.0</ele><time>2026-05-02T12:41:09.189Z</time></trkpt><trkpt lat="44.0419265" lon="9.9680402"><ele>263.0</ele><time>2026-05-02T12:41:16.087Z</time></trkpt><trkpt lat="44.0418684" lon="9.9680991"><ele>263.0</ele><time>2026-05-02T12:41:22.163Z</time></trkpt><trkpt lat="44.0418283" lon="9.9681718"><ele>263.0</ele><time>2026-05-02T12:41:27.178Z</time></trkpt><trkpt lat="44.041771" lon="9.9682221"><ele>263.0</ele><time>2026-05-02T12:41:34.21Z</time></trkpt><trkpt lat="44.0417005" lon="9.9682364"><ele>263.0</ele><time>2026-05-02T12:41:42.208Z</time></trkpt><trkpt lat="44.0416366" lon="9.9682025"><ele>263.0</ele><time>2026-05-02T12:41:48.207Z</time></trkpt><trkpt lat="44.0415858" lon="9.9681324"><ele>263.0</ele><time>2026-05-02T12:41:53.2Z</time></trkpt><trkpt lat="44.0415395" lon="9.9680552"><ele>263.0</ele><time>2026-05-02T12:41:59.196Z</time></trkpt><trkpt lat="44.0415069" lon="9.9679697"><ele>261.7142857142857</ele><time>2026-05-02T12:43:33.19Z</time></trkpt><trkpt lat="44.0414602" lon="9.9678993"><ele>260.4285714285714</ele><time>2026-05-02T12:43:38.19Z</time></trkpt><trkpt lat="44.0414214" lon="9.9678282"><ele>259.1428571428571</ele><time>2026-05-02T12:43:46.191Z</time></trkpt><trkpt lat="44.041379" lon="9.9677631"><ele>257.85714285714283</ele><time>2026-05-02T12:43:52.155Z</time></trkpt><trkpt lat="44.0413331" lon="9.9676939"><ele>256.57142857142856</ele><time>2026-05-02T12:43:58.155Z</time></trkpt><trkpt lat="44.0413096" lon="9.9676053"><ele>255.28571428571428</ele><time>2026-05-02T12:44:05.186Z</time></trkpt><trkpt lat="44.0412796" lon="9.9675213"><ele>254.0</ele><time>2026-05-02T12:44:12.188Z</time></trkpt><trkpt lat="44.0412532" lon="9.9674343"><ele>254.0</ele><time>2026-05-02T12:44:19.191Z</time></trkpt><trkpt lat="44.0412103" lon="9.9673692"><ele>254.0</ele><time>2026-05-02T12:44:26.186Z</time></trkpt><trkpt lat="44.0411918" lon="9.9672843"><ele>254.0</ele><time>2026-05-02T12:45:37.193Z</time></trkpt><trkpt lat="44.041181" lon="9.967196"><ele>254.0</ele><time>2026-05-02T12:45:43.195Z</time></trkpt><trkpt lat="44.0411433" lon="9.9671256"><ele>254.0</ele><time>2026-05-02T12:45:52.199Z</time></trkpt><trkpt lat="44.0411227" lon="9.9670311"><ele>254.0</ele><time>2026-05-02T12:46:00.218Z</time></trkpt><trkpt lat="44.0410833" lon="9.9669405"><ele>254.0</ele><time>2026-05-02T12:46:19.13Z</time></trkpt><trkpt lat="44.0410683" lon="9.9668482"><ele>254.0</ele><time>2026-05-02T12:46:52.096Z</time></trkpt><trkpt lat="44.0411125" lon="9.9667744"><ele>254.0</ele><time>2026-05-02T12:47:07.193Z</time></trkpt><trkpt lat="44.0411351" lon="9.9666816"><ele>254.0</ele><time>2026-05-02T12:47:14.18Z</time></trkpt><trkpt lat="44.0411383" lon="9.9665801"><ele>254.0</ele><time>2026-05-02T12:47:22.221Z</time></trkpt><trkpt lat="44.0411243" lon="9.9664941"><ele>254.0</ele><time>2026-05-02T12:47:28.196Z</time></trkpt><trkpt lat="44.0411251" lon="9.9663969"><ele>254.0</ele><time>2026-05-02T12:47:42.191Z</time></trkpt><trkpt lat="44.0411608" lon="9.9663148"><ele>254.0</ele><time>2026-05-02T12:47:48.19Z</time></trkpt><trkpt lat="44.0412118" lon="9.9662385"><ele>252.85714285714286</ele><time>2026-05-02T12:47:53.186Z</time></trkpt><trkpt lat="44.0412384" lon="9.9661525"><ele>251.71428571428572</ele><time>2026-05-02T12:47:59.178Z</time></trkpt><trkpt lat="44.0412746" lon="9.9660536"><ele>250.57142857142858</ele><time>2026-05-02T12:48:04.091Z</time></trkpt><trkpt lat="44.0413223" lon="9.9659707"><ele>249.42857142857144</ele><time>2026-05-02T12:48:08.177Z</time></trkpt><trkpt lat="44.0413697" lon="9.96591"><ele>248.28571428571428</ele><time>2026-05-02T12:48:22.199Z</time></trkpt><trkpt lat="44.0414206" lon="9.9658468"><ele>247.14285714285717</ele><time>2026-05-02T12:48:27.192Z</time></trkpt><trkpt lat="44.0414676" lon="9.9657663"><ele>246.00000000000003</ele><time>2026-05-02T12:48:31.205Z</time></trkpt><trkpt lat="44.0415113" lon="9.9657024"><ele>246.71428571428575</ele><time>2026-05-02T12:48:35.207Z</time></trkpt><trkpt lat="44.0415708" lon="9.9656565"><ele>247.42857142857144</ele><time>2026-05-02T12:48:39.172Z</time></trkpt><trkpt lat="44.0416231" lon="9.9656035"><ele>248.14285714285714</ele><time>2026-05-02T12:48:44.178Z</time></trkpt><trkpt lat="44.0416748" lon="9.9655402"><ele>248.85714285714286</ele><time>2026-05-02T12:48:49.206Z</time></trkpt><trkpt lat="44.041734" lon="9.9654789"><ele>249.57142857142856</ele><time>2026-05-02T12:48:55.045Z</time></trkpt><trkpt lat="44.0417729" lon="9.9653909"><ele>250.28571428571425</ele><time>2026-05-02T12:49:01.181Z</time></trkpt><trkpt lat="44.0418207" lon="9.9653198"><ele>250.99999999999997</ele><time>2026-05-02T12:49:07.14Z</time></trkpt><trkpt lat="44.041863" lon="9.9652519"><ele>250.99999999999997</ele><time>2026-05-02T12:49:13.154Z</time></trkpt><trkpt lat="44.041911" lon="9.9651824"><ele>251.0</ele><time>2026-05-02T12:49:19.174Z</time></trkpt><trkpt lat="44.0419445" lon="9.9651015"><ele>250.99999999999997</ele><time>2026-05-02T12:49:25.197Z</time></trkpt><trkpt lat="44.0419865" lon="9.9650213"><ele>250.99999999999997</ele><time>2026-05-02T12:49:33.185Z</time></trkpt><trkpt lat="44.0420338" lon="9.9649557"><ele>251.0</ele><time>2026-05-02T12:49:40.18Z</time></trkpt><trkpt lat="44.0420976" lon="9.964917"><ele>250.99999999999997</ele><time>2026-05-02T12:50:06.177Z</time></trkpt><trkpt lat="44.0421627" lon="9.9649076"><ele>250.99999999999997</ele><time>2026-05-02T12:50:14.172Z</time></trkpt><trkpt lat="44.0422285" lon="9.9649206"><ele>251.71428571428567</ele><time>2026-05-02T12:50:21.154Z</time></trkpt><trkpt lat="44.0423036" lon="9.9649146"><ele>252.42857142857142</ele><time>2026-05-02T12:50:28.166Z</time></trkpt><trkpt lat="44.042371" lon="9.9649073"><ele>253.1428571428571</ele><time>2026-05-02T12:50:33.163Z</time></trkpt><trkpt lat="44.0424391" lon="9.9648958"><ele>253.85714285714283</ele><time>2026-05-02T12:50:39.158Z</time></trkpt><trkpt lat="44.042504" lon="9.9648885"><ele>254.57142857142856</ele><time>2026-05-02T12:50:45.155Z</time></trkpt><trkpt lat="44.0425643" lon="9.9648602"><ele>255.28571428571428</ele><time>2026-05-02T12:50:51.163Z</time></trkpt><trkpt lat="44.0426328" lon="9.9648482"><ele>256.0</ele><time>2026-05-02T12:50:58.181Z</time></trkpt><trkpt lat="44.0427025" lon="9.9648185"><ele>256.0</ele><time>2026-05-02T12:51:04.169Z</time></trkpt><trkpt lat="44.0427662" lon="9.964793"><ele>255.99999999999997</ele><time>2026-05-02T12:51:09.187Z</time></trkpt><trkpt lat="44.042828" lon="9.9647593"><ele>256.0</ele><time>2026-05-02T12:51:15.176Z</time></trkpt><trkpt lat="44.0428985" lon="9.9647479"><ele>256.0</ele><time>2026-05-02T12:51:22.209Z</time></trkpt><trkpt lat="44.0429603" lon="9.9647004"><ele>255.99999999999997</ele><time>2026-05-02T12:51:28.113Z</time></trkpt><trkpt lat="44.0430186" lon="9.9646491"><ele>256.0</ele><time>2026-05-02T12:51:33.191Z</time></trkpt><trkpt lat="44.0430877" lon="9.9646547"><ele>256.0</ele><time>2026-05-02T12:52:04.166Z</time></trkpt><trkpt lat="44.0431472" lon="9.9646952"><ele>256.0</ele><time>2026-05-02T12:52:11.179Z</time></trkpt><trkpt lat="44.0432125" lon="9.9647297"><ele>255.99999999999997</ele><time>2026-05-02T12:52:18.179Z</time></trkpt><trkpt lat="44.0432718" lon="9.9647707"><ele>256.0</ele><time>2026-05-02T12:52:25.17Z</time></trkpt><trkpt lat="44.043331" lon="9.9648017"><ele>256.0</ele><time>2026-05-02T12:52:30.163Z</time></trkpt><trkpt lat="44.0434002" lon="9.9648279"><ele>255.99999999999997</ele><time>2026-05-02T12:52:42.168Z</time></trkpt><trkpt lat="44.0434712" lon="9.9648328"><ele>256.0</ele><time>2026-05-02T12:52:48.176Z</time></trkpt><trkpt lat="44.0435374" lon="9.964826"><ele>256.0</ele><time>2026-05-02T12:52:54.184Z</time></trkpt><trkpt lat="44.0436001" lon="9.96477"><ele>256.57142857142856</ele><time>2026-05-02T12:53:00.174Z</time></trkpt><trkpt lat="44.0436512" lon="9.9647153"><ele>257.1428571428571</ele><time>2026-05-02T12:53:06.194Z</time></trkpt><trkpt lat="44.0437142" lon="9.9646768"><ele>257.7142857142857</ele><time>2026-05-02T12:53:12.134Z</time></trkpt><trkpt lat="44.0437873" lon="9.964658"><ele>258.2857142857143</ele><time>2026-05-02T12:53:18.171Z</time></trkpt><trkpt lat="44.0438588" lon="9.964649"><ele>258.8571428571429</ele><time>2026-05-02T12:53:24.2Z</time></trkpt><trkpt lat="44.0439154" lon="9.9646081"><ele>259.42857142857144</ele><time>2026-05-02T12:53:29.18Z</time></trkpt><trkpt lat="44.043974" lon="9.9645688"><ele>260.0</ele><time>2026-05-02T12:53:34.188Z</time></trkpt><trkpt lat="44.0439695" lon="9.9644762"><ele>260.00000000000006</ele><time>2026-05-02T12:53:47.131Z</time></trkpt><trkpt lat="44.0439752" lon="9.9643888"><ele>260.0</ele><time>2026-05-02T12:53:52.151Z</time></trkpt><trkpt lat="44.0439855" lon="9.9642971"><ele>260.0</ele><time>2026-05-02T12:53:56.2Z</time></trkpt><trkpt lat="44.0439992" lon="9.964194"><ele>260.0</ele><time>2026-05-02T12:54:01.18Z</time></trkpt><trkpt lat="44.0440056" lon="9.9640873"><ele>260.0</ele><time>2026-05-02T12:54:06.179Z</time></trkpt><trkpt lat="44.0440129" lon="9.9639951"><ele>260.00000000000006</ele><time>2026-05-02T12:54:11.021Z</time></trkpt><trkpt lat="44.0439843" lon="9.9639126"><ele>260.0</ele><time>2026-05-02T12:54:16.177Z</time></trkpt><trkpt lat="44.043925" lon="9.9638533"><ele>259.28571428571433</ele><time>2026-05-02T12:54:23.192Z</time></trkpt><trkpt lat="44.0438619" lon="9.9638397"><ele>258.57142857142856</ele><time>2026-05-02T12:54:30.173Z</time></trkpt><trkpt lat="44.0437994" lon="9.9638044"><ele>257.8571428571429</ele><time>2026-05-02T12:54:36.111Z</time></trkpt><trkpt lat="44.0437373" lon="9.9637575"><ele>257.14285714285717</ele><time>2026-05-02T12:54:42.117Z</time></trkpt><trkpt lat="44.043741" lon="9.9636558"><ele>256.42857142857144</ele><time>2026-05-02T12:54:49.192Z</time></trkpt><trkpt lat="44.0437504" lon="9.9635525"><ele>255.71428571428572</ele><time>2026-05-02T12:54:55.152Z</time></trkpt><trkpt lat="44.0437676" lon="9.9634629"><ele>255.0</ele><time>2026-05-02T12:55:00.183Z</time></trkpt><trkpt lat="44.043785" lon="9.9633664"><ele>253.57142857142858</ele><time>2026-05-02T12:55:07.19Z</time></trkpt><trkpt lat="44.0438028" lon="9.9632721"><ele>252.14285714285717</ele><time>2026-05-02T12:55:12.183Z</time></trkpt><trkpt lat="44.0438132" lon="9.9631725"><ele>250.71428571428572</ele><time>2026-05-02T12:55:17.187Z</time></trkpt><trkpt lat="44.0438226" lon="9.9630781"><ele>249.28571428571428</ele><time>2026-05-02T12:55:22.186Z</time></trkpt><trkpt lat="44.0437583" lon="9.9630274"><ele>247.85714285714286</ele><time>2026-05-02T12:55:29.197Z</time></trkpt><trkpt lat="44.0436901" lon="9.962985"><ele>246.42857142857144</ele><time>2026-05-02T12:55:36.189Z</time></trkpt><trkpt lat="44.0436385" lon="9.9629327"><ele>245.0</ele><time>2026-05-02T12:55:41.181Z</time></trkpt><trkpt lat="44.0436341" lon="9.9628314"><ele>245.0</ele><time>2026-05-02T12:56:10.119Z</time></trkpt><trkpt lat="44.0436503" lon="9.9627338"><ele>245.0</ele><time>2026-05-02T12:56:14.169Z</time></trkpt><trkpt lat="44.043687" lon="9.9626545"><ele>245.0</ele><time>2026-05-02T12:56:18.168Z</time></trkpt><trkpt lat="44.0436741" lon="9.96256"><ele>245.0</ele><time>2026-05-02T12:56:24.195Z</time></trkpt><trkpt lat="44.0436395" lon="9.9624859"><ele>245.0</ele><time>2026-05-02T12:56:31.177Z</time></trkpt><trkpt lat="44.0436054" lon="9.9624104"><ele>245.0</ele><time>2026-05-02T12:56:38.184Z</time></trkpt><trkpt lat="44.0435779" lon="9.9623237"><ele>245.0</ele><time>2026-05-02T12:56:46.191Z</time></trkpt><trkpt lat="44.0435552" lon="9.9622282"><ele>243.71428571428572</ele><time>2026-05-02T12:56:52.18Z</time></trkpt><trkpt lat="44.0435065" lon="9.9621687"><ele>242.42857142857144</ele><time>2026-05-02T12:56:58.151Z</time></trkpt><trkpt lat="44.0434615" lon="9.9620999"><ele>241.14285714285714</ele><time>2026-05-02T12:57:06.177Z</time></trkpt><trkpt lat="44.0434076" lon="9.9620461"><ele>239.85714285714286</ele><time>2026-05-02T12:57:38.177Z</time></trkpt><trkpt lat="44.0434006" lon="9.9619577"><ele>238.57142857142858</ele><time>2026-05-02T12:57:44.168Z</time></trkpt><trkpt lat="44.0433796" lon="9.9618571"><ele>237.28571428571428</ele><time>2026-05-02T12:57:59.178Z</time></trkpt><trkpt lat="44.0433775" lon="9.9617688"><ele>236.0</ele><time>2026-05-02T12:58:03.179Z</time></trkpt><trkpt lat="44.0433933" lon="9.9616753"><ele>234.57142857142856</ele><time>2026-05-02T12:58:08.13Z</time></trkpt><trkpt lat="44.0433929" lon="9.961574"><ele>233.14285714285717</ele><time>2026-05-02T12:58:15.187Z</time></trkpt><trkpt lat="44.0433798" lon="9.9614782"><ele>231.71428571428572</ele><time>2026-05-02T12:58:22.171Z</time></trkpt><trkpt lat="44.0433643" lon="9.9613912"><ele>230.28571428571428</ele><time>2026-05-02T12:58:48.16Z</time></trkpt><trkpt lat="44.0433456" lon="9.9613036"><ele>228.85714285714283</ele><time>2026-05-02T12:59:04.12Z</time></trkpt><trkpt lat="44.043278" lon="9.9612406"><ele>227.42857142857144</ele><time>2026-05-02T12:59:23.119Z</time></trkpt><trkpt lat="44.0432107" lon="9.9612594"><ele>226.0</ele><time>2026-05-02T12:59:33.116Z</time></trkpt><trkpt lat="44.0431436" lon="9.9612685"><ele>224.0</ele><time>2026-05-02T12:59:45.2Z</time></trkpt><trkpt lat="44.0430842" lon="9.9613095"><ele>222.0</ele><time>2026-05-02T12:59:49.178Z</time></trkpt><trkpt lat="44.0430331" lon="9.9613657"><ele>220.0</ele><time>2026-05-02T12:59:53.184Z</time></trkpt><trkpt lat="44.042977" lon="9.9614087"><ele>218.0</ele><time>2026-05-02T12:59:57.161Z</time></trkpt><trkpt lat="44.042905" lon="9.9614415"><ele>216.0</ele><time>2026-05-02T13:00:02.179Z</time></trkpt><trkpt lat="44.0428464" lon="9.9614071"><ele>214.0</ele><time>2026-05-02T13:00:10.172Z</time></trkpt><trkpt lat="44.042771" lon="9.9613862"><ele>212.0</ele><time>2026-05-02T13:00:27.192Z</time></trkpt><trkpt lat="44.0427083" lon="9.9613512"><ele>212.0</ele><time>2026-05-02T13:00:33.175Z</time></trkpt><trkpt lat="44.0426602" lon="9.961291"><ele>212.0</ele><time>2026-05-02T13:00:44.179Z</time></trkpt><trkpt lat="44.0425919" lon="9.9612851"><ele>212.0</ele><time>2026-05-02T13:00:52.164Z</time></trkpt><trkpt lat="44.0424995" lon="9.9612505"><ele>212.0</ele><time>2026-05-02T13:01:21.184Z</time></trkpt><trkpt lat="44.0424438" lon="9.9611786"><ele>212.0</ele><time>2026-05-02T13:01:49.171Z</time></trkpt><trkpt lat="44.0423953" lon="9.9611203"><ele>212.0</ele><time>2026-05-02T13:01:52.078Z</time></trkpt><trkpt lat="44.0423323" lon="9.9611699"><ele>212.0</ele><time>2026-05-02T13:01:57.171Z</time></trkpt><trkpt lat="44.0422688" lon="9.9611833"><ele>204.42857142857144</ele><time>2026-05-02T13:02:04.18Z</time></trkpt><trkpt lat="44.0422052" lon="9.9612119"><ele>196.85714285714283</ele><time>2026-05-02T13:02:27.126Z</time></trkpt><trkpt lat="44.0420952" lon="9.9612345"><ele>189.28571428571428</ele><time>2026-05-02T13:03:38.131Z</time></trkpt><trkpt lat="44.0420485" lon="9.9611534"><ele>181.71428571428572</ele><time>2026-05-02T13:04:21.175Z</time></trkpt><trkpt lat="44.0419942" lon="9.9611075"><ele>174.14285714285717</ele><time>2026-05-02T13:04:32.174Z</time></trkpt><trkpt lat="44.0419459" lon="9.9611697"><ele>166.57142857142856</ele><time>2026-05-02T13:05:00.114Z</time></trkpt><trkpt lat="44.0418834" lon="9.9611807"><ele>159.0</ele><time>2026-05-02T13:05:35.176Z</time></trkpt><trkpt lat="44.0418398" lon="9.961269"><ele>159.0</ele><time>2026-05-02T13:05:57.169Z</time></trkpt><trkpt lat="44.0417641" lon="9.9613801"><ele>159.0</ele><time>2026-05-02T13:06:35.174Z</time></trkpt><trkpt lat="44.0417009" lon="9.961387"><ele>159.0</ele><time>2026-05-02T13:07:31.146Z</time></trkpt><trkpt lat="44.0416391" lon="9.9614159"><ele>159.0</ele><time>2026-05-02T13:08:18.141Z</time></trkpt><trkpt lat="44.0415431" lon="9.9614861"><ele>159.0</ele><time>2026-05-02T13:09:26.132Z</time></trkpt><trkpt lat="44.0414477" lon="9.9615584"><ele>154.83333333333334</ele><time>2026-05-02T13:10:29.126Z</time></trkpt><trkpt lat="44.0413869" lon="9.9616035"><ele>150.66666666666666</ele><time>2026-05-02T13:11:04.146Z</time></trkpt><trkpt lat="44.0413236" lon="9.9616445"><ele>146.5</ele><time>2026-05-02T13:11:10.181Z</time></trkpt><trkpt lat="44.0412593" lon="9.9616643"><ele>142.33333333333331</ele><time>2026-05-02T13:11:16.169Z</time></trkpt><trkpt lat="44.0412029" lon="9.9617237"><ele>138.16666666666666</ele><time>2026-05-02T13:11:25.135Z</time></trkpt><trkpt lat="44.0410721" lon="9.9617741"><ele>134.0</ele><time>2026-05-02T13:12:08.145Z</time></trkpt><trkpt lat="44.0410446" lon="9.9616905"><ele>128.57142857142858</ele><time>2026-05-02T13:12:16.171Z</time></trkpt><trkpt lat="44.04102" lon="9.961601"><ele>123.14285714285714</ele><time>2026-05-02T13:12:55.17Z</time></trkpt><trkpt lat="44.0409987" lon="9.9615181"><ele>117.71428571428571</ele><time>2026-05-02T13:13:21.18Z</time></trkpt><trkpt lat="44.040941" lon="9.9614784"><ele>112.28571428571428</ele><time>2026-05-02T13:13:47.119Z</time></trkpt><trkpt lat="44.0408701" lon="9.9614645"><ele>106.85714285714286</ele><time>2026-05-02T13:14:05.169Z</time></trkpt><trkpt lat="44.0408101" lon="9.9613812"><ele>101.42857142857142</ele><time>2026-05-02T13:14:35.18Z</time></trkpt><trkpt lat="44.0407702" lon="9.9613043"><ele>96.0</ele><time>2026-05-02T13:14:47.108Z</time></trkpt><trkpt lat="44.0407089" lon="9.9613461"><ele>88.85714285714285</ele><time>2026-05-02T13:15:12.162Z</time></trkpt><trkpt lat="44.0406352" lon="9.9613728"><ele>81.71428571428571</ele><time>2026-05-02T13:15:40.175Z</time></trkpt><trkpt lat="44.0405845" lon="9.9613111"><ele>74.57142857142857</ele><time>2026-05-02T13:15:46.077Z</time></trkpt><trkpt lat="44.0405168" lon="9.9613456"><ele>67.42857142857142</ele><time>2026-05-02T13:16:12.117Z</time></trkpt><trkpt lat="44.040457" lon="9.9613129"><ele>60.28571428571428</ele><time>2026-05-02T13:16:19.095Z</time></trkpt><trkpt lat="44.0403917" lon="9.9613004"><ele>53.142857142857146</ele><time>2026-05-02T13:17:16.158Z</time></trkpt><trkpt lat="44.0403281" lon="9.9613127"><ele>46.0</ele><time>2026-05-02T13:17:22.178Z</time></trkpt><trkpt lat="44.0403302" lon="9.9612212"><ele>46.0</ele><time>2026-05-02T13:18:03.191Z</time></trkpt><trkpt lat="44.0402783" lon="9.9611576"><ele>46.0</ele><time>2026-05-02T13:18:39.096Z</time></trkpt><trkpt lat="44.0402395" lon="9.9610846"><ele>46.0</ele><time>2026-05-02T13:18:45.173Z</time></trkpt><trkpt lat="44.0402221" lon="9.9610004"><ele>46.0</ele><time>2026-05-02T13:19:13.188Z</time></trkpt><trkpt lat="44.0402381" lon="9.9609145"><ele>46.0</ele><time>2026-05-02T13:19:39.177Z</time></trkpt><trkpt lat="44.0402577" lon="9.9608232"><ele>46.0</ele><time>2026-05-02T13:19:46.155Z</time></trkpt><trkpt lat="44.0403198" lon="9.9607983"><ele>46.0</ele><time>2026-05-02T13:20:23.18Z</time></trkpt><trkpt lat="44.040335" lon="9.9607092"><ele>41.42857142857143</ele><time>2026-05-02T13:21:02.153Z</time></trkpt><trkpt lat="44.0403553" lon="9.9606259"><ele>36.857142857142854</ele><time>2026-05-02T13:21:06.175Z</time></trkpt><trkpt lat="44.0402971" lon="9.9605682"><ele>32.285714285714285</ele><time>2026-05-02T13:21:31.203Z</time></trkpt><trkpt lat="44.0402321" lon="9.9606121"><ele>27.714285714285715</ele><time>2026-05-02T13:21:36.171Z</time></trkpt><trkpt lat="44.0401687" lon="9.9606603"><ele>23.142857142857142</ele><time>2026-05-02T13:21:41.186Z</time></trkpt><trkpt lat="44.0400916" lon="9.9606958"><ele>18.57142857142857</ele><time>2026-05-02T13:21:47.193Z</time></trkpt><trkpt lat="44.0400274" lon="9.9607095"><ele>14.0</ele><time>2026-05-02T13:21:53.172Z</time></trkpt><trkpt lat="44.0399771" lon="9.9607632"><ele>14.0</ele><time>2026-05-02T13:21:59.122Z</time></trkpt><trkpt lat="44.0399344" lon="9.9608369"><ele>0.0</ele><time>2026-05-02T13:22:29.172Z</time></trkpt><trkpt lat="44.0398267" lon="9.9608496"><ele>0.0</ele><time>2026-05-02T13:26:35.132Z</time></trkpt></trkseg><trkseg><trkpt lat="44.0402064" lon="9.9605937"><ele>14.0</ele><time>2026-05-02T15:01:01.517Z</time></trkpt><trkpt lat="44.0402694" lon="9.9605555"><ele>13.999999999999998</ele><time>2026-05-02T15:01:07.549Z</time></trkpt><trkpt lat="44.0403384" lon="9.9605639"><ele>13.999999999999998</ele><time>2026-05-02T15:01:15.505Z</time></trkpt><trkpt lat="44.0403994" lon="9.9607195"><ele>14.0</ele><time>2026-05-02T15:02:03.462Z</time></trkpt><trkpt lat="44.0404018" lon="9.9608129"><ele>14.0</ele><time>2026-05-02T15:02:27.525Z</time></trkpt><trkpt lat="44.040391" lon="9.9610168"><ele>18.57142857142857</ele><time>2026-05-02T15:03:19.544Z</time></trkpt><trkpt lat="44.0403838" lon="9.9611042"><ele>23.142857142857142</ele><time>2026-05-02T15:03:59.528Z</time></trkpt><trkpt lat="44.0404052" lon="9.9611892"><ele>27.714285714285715</ele><time>2026-05-02T15:04:19.525Z</time></trkpt><trkpt lat="44.040416" lon="9.9612759"><ele>32.285714285714285</ele><time>2026-05-02T15:05:02.54Z</time></trkpt><trkpt lat="44.0404531" lon="9.9613475"><ele>36.857142857142854</ele><time>2026-05-02T15:05:45.505Z</time></trkpt><trkpt lat="44.0405346" lon="9.9613796"><ele>41.42857142857143</ele><time>2026-05-02T15:06:14.541Z</time></trkpt><trkpt lat="44.0405896" lon="9.9614261"><ele>46.0</ele><time>2026-05-02T15:06:41.527Z</time></trkpt><trkpt lat="44.0406684" lon="9.9614492"><ele>46.0</ele><time>2026-05-02T15:07:14.54Z</time></trkpt><trkpt lat="44.0407689" lon="9.9614379"><ele>46.0</ele><time>2026-05-02T15:08:23.541Z</time></trkpt><trkpt lat="44.0408114" lon="9.9613641"><ele>46.0</ele><time>2026-05-02T15:08:32.515Z</time></trkpt><trkpt lat="44.0408485" lon="9.9614363"><ele>46.0</ele><time>2026-05-02T15:09:08.538Z</time></trkpt><trkpt lat="44.0409032" lon="9.9614891"><ele>46.0</ele><time>2026-05-02T15:09:32.518Z</time></trkpt><trkpt lat="44.0409612" lon="9.9615368"><ele>46.0</ele><time>2026-05-02T15:09:51.525Z</time></trkpt><trkpt lat="44.0409683" lon="9.9616255"><ele>46.0</ele><time>2026-05-02T15:10:10.516Z</time></trkpt><trkpt lat="44.0410203" lon="9.9616752"><ele>53.142857142857146</ele><time>2026-05-02T15:10:37.527Z</time></trkpt><trkpt lat="44.0410831" lon="9.9616944"><ele>60.28571428571428</ele><time>2026-05-02T15:11:26.522Z</time></trkpt><trkpt lat="44.0411215" lon="9.9617658"><ele>67.42857142857142</ele><time>2026-05-02T15:12:28.518Z</time></trkpt><trkpt lat="44.0411822" lon="9.9618054"><ele>74.57142857142857</ele><time>2026-05-02T15:12:46.546Z</time></trkpt><trkpt lat="44.0412466" lon="9.9617958"><ele>81.71428571428571</ele><time>2026-05-02T15:13:32.531Z</time></trkpt><trkpt lat="44.0413045" lon="9.9617569"><ele>88.85714285714285</ele><time>2026-05-02T15:13:44.525Z</time></trkpt><trkpt lat="44.0413683" lon="9.9617366"><ele>96.0</ele><time>2026-05-02T15:14:02.527Z</time></trkpt><trkpt lat="44.0413982" lon="9.9616507"><ele>95.99999999999999</ele><time>2026-05-02T15:14:22.526Z</time></trkpt><trkpt lat="44.0414487" lon="9.9615858"><ele>96.0</ele><time>2026-05-02T15:14:44.532Z</time></trkpt><trkpt lat="44.0415404" lon="9.961585"><ele>96.0</ele><time>2026-05-02T15:15:21.456Z</time></trkpt><trkpt lat="44.0415745" lon="9.9615102"><ele>96.0</ele><time>2026-05-02T15:16:15.523Z</time></trkpt><trkpt lat="44.0416567" lon="9.9614842"><ele>96.0</ele><time>2026-05-02T15:16:49.539Z</time></trkpt><trkpt lat="44.0416936" lon="9.9614095"><ele>95.99999999999999</ele><time>2026-05-02T15:17:07.534Z</time></trkpt><trkpt lat="44.0417355" lon="9.9613417"><ele>96.0</ele><time>2026-05-02T15:19:03.509Z</time></trkpt><trkpt lat="44.0417897" lon="9.9612851"><ele>105.0</ele><time>2026-05-02T15:19:31.533Z</time></trkpt><trkpt lat="44.0418413" lon="9.9612322"><ele>114.0</ele><time>2026-05-02T15:19:45.52Z</time></trkpt><trkpt lat="44.041892" lon="9.9611773"><ele>123.0</ele><time>2026-05-02T15:20:18.533Z</time></trkpt><trkpt lat="44.0419952" lon="9.9611492"><ele>132.0</ele><time>2026-05-02T15:21:05.534Z</time></trkpt><trkpt lat="44.0420591" lon="9.9611281"><ele>141.0</ele><time>2026-05-02T15:21:31.501Z</time></trkpt><trkpt lat="44.0421219" lon="9.9611042"><ele>150.0</ele><time>2026-05-02T15:21:44.423Z</time></trkpt><trkpt lat="44.0421621" lon="9.9611741"><ele>159.0</ele><time>2026-05-02T15:22:26.513Z</time></trkpt><trkpt lat="44.0422613" lon="9.9612588"><ele>159.0</ele><time>2026-05-02T15:24:16.489Z</time></trkpt><trkpt lat="44.042148" lon="9.9613248"><ele>159.0</ele><time>2026-05-02T15:26:06.52Z</time></trkpt><trkpt lat="44.0421572" lon="9.9612296"><ele>159.0</ele><time>2026-05-02T15:26:39.521Z</time></trkpt><trkpt lat="44.0422026" lon="9.9611678"><ele>159.0</ele><time>2026-05-02T15:26:55.523Z</time></trkpt><trkpt lat="44.0422506" lon="9.9611099"><ele>159.0</ele><time>2026-05-02T15:27:05.54Z</time></trkpt><trkpt lat="44.0423453" lon="9.9611178"><ele>159.0</ele><time>2026-05-02T15:27:56.48Z</time></trkpt><trkpt lat="44.0424087" lon="9.9611445"><ele>166.57142857142856</ele><time>2026-05-02T15:28:14.516Z</time></trkpt><trkpt lat="44.0424867" lon="9.961193"><ele>174.14285714285717</ele><time>2026-05-02T15:28:32.53Z</time></trkpt><trkpt lat="44.0425532" lon="9.9612042"><ele>181.71428571428572</ele><time>2026-05-02T15:28:43.528Z</time></trkpt><trkpt lat="44.0426176" lon="9.9612161"><ele>189.28571428571428</ele><time>2026-05-02T15:28:54.554Z</time></trkpt><trkpt lat="44.0426728" lon="9.961261"><ele>196.85714285714283</ele><time>2026-05-02T15:29:01.554Z</time></trkpt><trkpt lat="44.0427328" lon="9.961304"><ele>204.42857142857144</ele><time>2026-05-02T15:29:18.519Z</time></trkpt><trkpt lat="44.0427942" lon="9.9613354"><ele>212.0</ele><time>2026-05-02T15:29:33.533Z</time></trkpt><trkpt lat="44.0428565" lon="9.9613529"><ele>212.00000000000003</ele><time>2026-05-02T15:29:53.466Z</time></trkpt><trkpt lat="44.0429516" lon="9.961357"><ele>212.0</ele><time>2026-05-02T15:30:20.526Z</time></trkpt><trkpt lat="44.043015" lon="9.961327"><ele>212.0</ele><time>2026-05-02T15:30:28.482Z</time></trkpt><trkpt lat="44.043072" lon="9.9612844"><ele>212.0</ele><time>2026-05-02T15:30:34.545Z</time></trkpt><trkpt lat="44.0431356" lon="9.9612283"><ele>212.00000000000003</ele><time>2026-05-02T15:30:42.543Z</time></trkpt><trkpt lat="44.0431972" lon="9.9612018"><ele>212.0</ele><time>2026-05-02T15:30:48.519Z</time></trkpt><trkpt lat="44.0432792" lon="9.9612466"><ele>214.0</ele><time>2026-05-02T15:31:31.515Z</time></trkpt><trkpt lat="44.0433048" lon="9.9613305"><ele>216.0</ele><time>2026-05-02T15:31:45.531Z</time></trkpt><trkpt lat="44.0433184" lon="9.9614197"><ele>218.0</ele><time>2026-05-02T15:31:51.569Z</time></trkpt><trkpt lat="44.0433277" lon="9.9615064"><ele>220.0</ele><time>2026-05-02T15:31:59.556Z</time></trkpt><trkpt lat="44.0433331" lon="9.9615956"><ele>222.0</ele><time>2026-05-02T15:32:09.52Z</time></trkpt><trkpt lat="44.0433314" lon="9.9616924"><ele>224.0</ele><time>2026-05-02T15:32:13.519Z</time></trkpt><trkpt lat="44.0433257" lon="9.9617831"><ele>226.0</ele><time>2026-05-02T15:32:17.525Z</time></trkpt><trkpt lat="44.0433173" lon="9.9618838"><ele>227.42857142857144</ele><time>2026-05-02T15:32:22.481Z</time></trkpt><trkpt lat="44.0433455" lon="9.961963"><ele>228.85714285714283</ele><time>2026-05-02T15:32:35.537Z</time></trkpt><trkpt lat="44.0433895" lon="9.962032"><ele>230.28571428571428</ele><time>2026-05-02T15:32:50.533Z</time></trkpt><trkpt lat="44.0434345" lon="9.9621061"><ele>231.71428571428572</ele><time>2026-05-02T15:32:56.541Z</time></trkpt><trkpt lat="44.0434533" lon="9.9621946"><ele>233.14285714285717</ele><time>2026-05-02T15:33:02.561Z</time></trkpt><trkpt lat="44.043482" lon="9.9622839"><ele>234.57142857142856</ele><time>2026-05-02T15:33:09.531Z</time></trkpt><trkpt lat="44.0435208" lon="9.962354"><ele>236.0</ele><time>2026-05-02T15:33:15.513Z</time></trkpt><trkpt lat="44.0435665" lon="9.9624246"><ele>236.0</ele><time>2026-05-02T15:33:25.542Z</time></trkpt><trkpt lat="44.0436173" lon="9.9624897"><ele>236.0</ele><time>2026-05-02T15:33:35.537Z</time></trkpt><trkpt lat="44.0436336" lon="9.9625808"><ele>236.0</ele><time>2026-05-02T15:33:47.462Z</time></trkpt><trkpt lat="44.043653" lon="9.9626664"><ele>236.0</ele><time>2026-05-02T15:33:57.532Z</time></trkpt><trkpt lat="44.0436311" lon="9.962749"><ele>236.0</ele><time>2026-05-02T15:34:03.525Z</time></trkpt><trkpt lat="44.0435929" lon="9.9628252"><ele>236.0</ele><time>2026-05-02T15:34:10.519Z</time></trkpt><trkpt lat="44.0436226" lon="9.9629065"><ele>236.0</ele><time>2026-05-02T15:34:21.517Z</time></trkpt><trkpt lat="44.0436693" lon="9.9629768"><ele>237.28571428571428</ele><time>2026-05-02T15:34:28.508Z</time></trkpt><trkpt lat="44.0437201" lon="9.9630349"><ele>238.57142857142858</ele><time>2026-05-02T15:34:34.428Z</time></trkpt><trkpt lat="44.0437623" lon="9.9631089"><ele>239.85714285714286</ele><time>2026-05-02T15:35:04.53Z</time></trkpt><trkpt lat="44.0437671" lon="9.9632085"><ele>241.14285714285714</ele><time>2026-05-02T15:35:16.539Z</time></trkpt><trkpt lat="44.0437676" lon="9.963308"><ele>242.42857142857144</ele><time>2026-05-02T15:35:21.501Z</time></trkpt><trkpt lat="44.0437696" lon="9.9634084"><ele>243.71428571428572</ele><time>2026-05-02T15:35:26.513Z</time></trkpt><trkpt lat="44.043758" lon="9.9635021"><ele>245.0</ele><time>2026-05-02T15:35:31.506Z</time></trkpt><trkpt lat="44.0437505" lon="9.963596"><ele>246.42857142857144</ele><time>2026-05-02T15:35:37.528Z</time></trkpt><trkpt lat="44.04373" lon="9.9636896"><ele>247.85714285714286</ele><time>2026-05-02T15:35:44.561Z</time></trkpt><trkpt lat="44.0437553" lon="9.9637801"><ele>249.28571428571428</ele><time>2026-05-02T15:35:52.408Z</time></trkpt><trkpt lat="44.0438028" lon="9.963841"><ele>250.71428571428572</ele><time>2026-05-02T15:35:58.515Z</time></trkpt><trkpt lat="44.0438515" lon="9.9639006"><ele>252.14285714285717</ele><time>2026-05-02T15:36:03.537Z</time></trkpt><trkpt lat="44.0439107" lon="9.9639566"><ele>253.57142857142858</ele><time>2026-05-02T15:36:09.51Z</time></trkpt><trkpt lat="44.0439467" lon="9.9640301"><ele>255.0</ele><time>2026-05-02T15:36:28.527Z</time></trkpt><trkpt lat="44.0439424" lon="9.9641286"><ele>255.71428571428572</ele><time>2026-05-02T15:36:38.535Z</time></trkpt><trkpt lat="44.0439307" lon="9.9642289"><ele>256.42857142857144</ele><time>2026-05-02T15:36:46.547Z</time></trkpt><trkpt lat="44.0439145" lon="9.9643175"><ele>257.14285714285717</ele><time>2026-05-02T15:36:54.51Z</time></trkpt><trkpt lat="44.0439246" lon="9.9644092"><ele>257.8571428571429</ele><time>2026-05-02T15:37:00.526Z</time></trkpt><trkpt lat="44.043946" lon="9.9645071"><ele>258.57142857142856</ele><time>2026-05-02T15:37:07.528Z</time></trkpt><trkpt lat="44.0439807" lon="9.9645836"><ele>259.28571428571433</ele><time>2026-05-02T15:37:17.53Z</time></trkpt><trkpt lat="44.0440329" lon="9.9646334"><ele>260.0</ele><time>2026-05-02T15:37:25.521Z</time></trkpt><trkpt lat="44.0440839" lon="9.9647113"><ele>260.28571428571433</ele><time>2026-05-02T15:37:33.537Z</time></trkpt><trkpt lat="44.0441323" lon="9.9647715"><ele>260.57142857142856</ele><time>2026-05-02T15:37:38.528Z</time></trkpt><trkpt lat="44.0441883" lon="9.9648283"><ele>260.8571428571429</ele><time>2026-05-02T15:37:44.518Z</time></trkpt><trkpt lat="44.0442353" lon="9.9648953"><ele>261.14285714285717</ele><time>2026-05-02T15:37:51.527Z</time></trkpt><trkpt lat="44.0442779" lon="9.9649782"><ele>261.42857142857144</ele><time>2026-05-02T15:37:58.521Z</time></trkpt><trkpt lat="44.0443146" lon="9.9650549"><ele>261.7142857142857</ele><time>2026-05-02T15:38:04.499Z</time></trkpt><trkpt lat="44.0443332" lon="9.9651552"><ele>262.0</ele><time>2026-05-02T15:38:10.52Z</time></trkpt><trkpt lat="44.0443441" lon="9.9652515"><ele>262.0</ele><time>2026-05-02T15:38:16.504Z</time></trkpt><trkpt lat="44.0443848" lon="9.9653329"><ele>262.0</ele><time>2026-05-02T15:38:22.488Z</time></trkpt><trkpt lat="44.0444058" lon="9.9654222"><ele>262.0</ele><time>2026-05-02T15:38:27.525Z</time></trkpt><trkpt lat="44.044355" lon="9.9654893"><ele>262.0</ele><time>2026-05-02T15:38:55.503Z</time></trkpt><trkpt lat="44.0442984" lon="9.9655358"><ele>262.0</ele><time>2026-05-02T15:39:04.506Z</time></trkpt><trkpt lat="44.0442632" lon="9.9656262"><ele>262.0</ele><time>2026-05-02T15:39:14.494Z</time></trkpt><trkpt lat="44.0442572" lon="9.9657194"><ele>262.0</ele><time>2026-05-02T15:39:22.509Z</time></trkpt></trkseg></trk></gpx>